Green Bluff, Washington
Current Conditions -  °F | °C
As of 8:53 PM on Friday 24 Oct 2014 (Local Time) from KSFF Reporting Station
Overcast Overcast  
Wind Chill: 51°   Ceiling: 6000
Heat Index: 51°   Visibility: 10mi
Dew Point: 43°   Wind: 0mph
Humidity: 74%   Direction: NA
Pressure: 29.99"   Gusts: NA
Location:  47.8288°N, 117.215°W
Report Text: KSFF 250353Z AUTO 00000KT 10SM BKN060 OVC080 11/06 A2999 RMK AO2 SLP159 T01060061
Loading
Personal Weather Stations






























Interactive Weather Map
Tropical Storm Tracking
New forecast layout! Learn more

10-Day Weather Forecast

Advertisements
Track Severe Weather on mobile